Kirkby Stephen, United Kingdom
Current Conditions -  °F | °C
As of 3:50 PM on Saturday 20 Dec 2014 (Local Time) from EGXE Reporting Station
Overcast Overcast  
Wind Chill: 37°   Ceiling: 17000
Heat Index: 45°   Visibility: 6mi
Dew Point: 37°   Wind: 16mph
Humidity: 76%   Direction: 280°W
Pressure: 30.21"   Gusts: NA
Location:  54.47°N, 2.35°W
Report Text: EGXE 201550Z AUTO 28014KT 9999 OVC170/// 07/03 Q1023
Loading
Personal Weather Stations






























Interactive Weather Map New forecast layout! Learn more

10-Day Weather Forecast

Advertisements
Track Severe Weather on mobile